Flint, MI

6:00 AM EST on January 22, 2019 (GMT -0500)
Flint Twp / Dye Elementary | | Change Station
Active Advisory: Winter Weather Advisory

Elev 741 ft 43.01 °N, 83.76 °W | Updated 54 seconds ago

Overcast
Overcast
10.3 °F
Feels Like 10 °F
N
0
Wind Variable Wind from South
Gusts 0.0 mph

Today
High -- | Low -- °F
--% Chance of Precip.
Yesterday
High -- | Low -- °F
Precip. -- in
Pressure 30.49 in
Visibility 10.0 miles
Clouds Overcast 8500 ft
Windchill 10 °F
Dew Point 5 °F
Humidity 81%
Rainfall 0.00 in
Snow Depth Not available.
7:59 AM 5:34 PM
Full, 98% visible
METAR KFNT 221053Z 15013KT 10SM OVC085 M12/M16 A3043 RMK AO2 SLP325 T11171161
Pressure 30.49 in
Visibility 10.0 miles
Clouds Overcast 8500 ft
Windchill 10 °F
Dew Point 5 °F
Humidity 81%
Rainfall 0.00 in
Snow Depth Not available.
7:59 AM 5:34 PM
Full, 98% visible
METAR KFNT 221053Z 15013KT 10SM OVC085 M12/M16 A3043 RMK AO2 SLP325 T11171161

Get Your Daily Forecast Email!

Thanks for signing up!

Be on the lookout for a verification email in your inbox.

You'll start receiving severe weather alerts in your inbox..

×

10-Day Weather Forecast

Almanac

Astronomy

Jan. 22, 2019 Rise Set
Actual Time
Civil Twilight
Nautical Twilight
Astronomical Twilight
Moon
Length of Visible Light
Length of Day
Tomorrow will be .
, % of the Moon is Illuminated

Today's Extremes

State Highs State Lows

Community

WunderPhotos

Category 6

Welcome to Category 6. This is the collective home for Weather Underground's featured writeups by Dr. Jeff Masters (right), Bob Henson (left), Chris Burt, and other regular contributors.

Nearby

Air Quality

  Air Quality AQ Index Pollutant
Not available.

Snow Depth

Station Depth Elevation

Earthquake Activity

City Distance Mag. Time & Date
Minimum magnitude displayed is 2.5.

Coastal Water Temperatures

Place Temperature

Stations

Nearby Weather Stations

Station Location Temp. Windchill Dew Point Humidity Wind Precip. Elev Updated Type
                   

Watches & Warnings

Winter Weather Advisory
Issued: 3:05 AM EST Jan. 22, 2019 – National Weather Service

... Winter Weather Advisory in effect from 6 PM this evening to
5 am EST Wednesday...

* what... wintry mix of snow, sleet, and freezing rain expected.
Total snow accumulations of 1 to 3 inches and ice accumulations
of up to one tenth of an inch expected. Precipitation changing
to rain early Wednesday morning as temperatures rise above
freezing.

* Where... Shiawassee, Genesee and Lapeer counties.

* When... from 6 PM this evening to 5 am EST Wednesday.

* Additional details... plan on slippery Road conditions. The
hazardous conditions could impact the evening commute.

Precautionary/preparedness actions...

A Winter Weather Advisory means that periods of snow, sleet or
freezing rain will cause travel difficulties. Expect slippery
roads and limited visibilities, and use caution while driving.